Time;durP1;ratioP1;P1;durP2;ratioP2;P2;SDS_P1;SDS_P2;PMS_P1;PMS_P2;Temp;Humidity;BMP_temperature;BMP_pressure;BME280_temperature;BME280_humidity;BME280_pressure;Samples;Min_cycle;Max_cycle;Signal;HPM_P1;HPM_P2
2023/01/17 00:00:33;;;;;;;;;5.50;5.50;;;;;-147.17;100.00;-15917.19;5056535;28;51053;-56
2023/01/17 00:02:59;;;;;;;;;6.75;6.00;;;;;-147.17;100.00;-15917.19;5050002;28;51311;-56
2023/01/17 00:10:57;;;;;;;;;4.50;4.50;;;;;-147.17;100.00;-15917.19;5041318;28;51114;-56
2023/01/17 00:13:22;;;;;;;;;9.25;5.75;;;;;-147.17;100.00;-15917.19;5044681;28;52811;-56
2023/01/17 00:15:47;;;;;;;;;2.00;2.00;;;;;-147.17;100.00;-15917.19;5046857;28;51084;-56
2023/01/17 00:18:13;;;;;;;;;6.75;5.00;;;;;-147.17;100.00;-15917.19;5052299;28;51870;-55
2023/01/17 00:26:12;;;;;;;;;6.00;5.00;;;;;-147.17;100.00;-15917.19;5042179;28;52924;-57
2023/01/17 01:35:40;;;;;;;;;8.50;6.50;;;;;-147.17;100.00;-15917.19;5049472;28;51326;-58
2023/01/17 01:38:06;;;;;;;;;6.75;6.25;;;;;-147.17;100.00;-15917.19;5058289;28;51357;-57
2023/01/17 01:40:31;;;;;;;;;5.00;5.00;;;;;-147.17;100.00;-15917.19;5056543;28;51176;-56
2023/01/17 01:42:59;;;;;;;;;6.00;5.75;;;;;-147.17;100.00;-15917.19;5058050;28;51901;-56
2023/01/17 01:45:26;;;;;;;;;7.25;7.25;;;;;-147.17;100.00;-15917.19;5045620;28;51066;-57
2023/01/17 01:47:56;;;;;;;;;8.50;6.75;;;;;-147.17;100.00;-15917.19;5053205;28;51414;-57
2023/01/17 01:50:22;;;;;;;;;9.00;8.25;;;;;-147.17;100.00;-15917.19;5068460;27;51052;-56
2023/01/17 01:52:54;;;;;;;;;6.25;5.75;;;;;-147.17;100.00;-15917.19;5038717;27;51021;-57
2023/01/17 01:55:27;;;;;;;;;9.25;5.75;;;;;-147.17;100.00;-15917.19;5048240;28;51310;-56
2023/01/17 01:57:57;;;;;;;;;9.50;9.50;;;;;-147.17;100.00;-15917.19;5064449;28;51140;-55
2023/01/17 02:00:29;;;;;;;;;9.50;7.75;;;;;-147.17;100.00;-15917.19;5059684;28;51045;-55
2023/01/17 02:02:59;;;;;;;;;6.25;6.25;;;;;-147.17;100.00;-15917.19;5052524;28;52974;-56
2023/01/17 02:05:26;;;;;;;;;10.50;9.00;;;;;-147.17;100.00;-15917.19;5049620;28;52083;-56
2023/01/17 02:08:02;;;;;;;;;7.50;6.00;;;;;-147.17;100.00;-15917.19;5055352;28;50976;-55
2023/01/17 02:10:31;;;;;;;;;8.75;8.00;;;;;-147.17;100.00;-15917.19;5055775;28;51271;-56
2023/01/17 02:12:57;;;;;;;;;7.50;6.00;;;;;-147.17;100.00;-15917.19;5060193;27;52917;-56
2023/01/17 02:15:30;;;;;;;;;8.75;8.00;;;;;-147.17;100.00;-15917.19;5048410;28;51289;-56
2023/01/17 02:18:20;;;;;;;;;10.50;7.50;;;;;-147.17;100.00;-15917.19;5055118;28;51390;-55
2023/01/17 02:21:22;;;;;;;;;9.00;8.75;;;;;-147.17;100.00;-15917.19;5056700;28;51260;-56
2023/01/17 02:24:08;;;;;;;;;9.00;8.75;;;;;-147.17;100.00;-15917.19;5061816;27;52837;-56
2023/01/17 02:26:49;;;;;;;;;8.25;8.00;;;;;-147.17;100.00;-15917.19;5048468;27;51162;-57
2023/01/17 02:29:51;;;;;;;;;7.50;7.50;;;;;-147.17;100.00;-15917.19;5047756;28;51362;-56
2023/01/17 02:32:47;;;;;;;;;7.00;5.50;;;;;-147.17;100.00;-15917.19;5045275;28;51187;-56
2023/01/17 02:35:26;;;;;;;;;7.50;6.50;;;;;-147.17;100.00;-15917.19;5054240;28;51221;-57
2023/01/17 02:38:14;;;;;;;;;8.75;8.75;;;;;-147.17;100.00;-15917.19;5045549;28;51250;-56
2023/01/17 02:40:46;;;;;;;;;6.00;5.50;;;;;-147.17;100.00;-15917.19;5054307;28;51261;-57
2023/01/17 02:43:14;;;;;;;;;8.75;8.50;;;;;-147.17;100.00;-15917.19;5054933;28;51161;-56
2023/01/17 02:45:40;;;;;;;;;15.75;15.75;;;;;-147.17;100.00;-15917.19;5053951;28;52353;-56
2023/01/17 02:48:09;;;;;;;;;9.25;8.75;;;;;-147.17;100.00;-15917.19;5047188;28;51148;-56
2023/01/17 02:51:03;;;;;;;;;10.00;9.50;;;;;-147.17;100.00;-15917.19;5057744;28;51077;-57
2023/01/17 02:54:01;;;;;;;;;12.25;11.50;;;;;-147.17;100.00;-15917.19;5045439;28;51461;-56
2023/01/17 02:56:40;;;;;;;;;13.00;13.00;;;;;-147.17;100.00;-15917.19;5039939;28;52929;-56
2023/01/17 02:59:13;;;;;;;;;15.00;13.75;;;;;-147.17;100.00;-15917.19;5047291;28;50949;-56
2023/01/17 03:01:38;;;;;;;;;13.50;13.50;;;;;-147.17;100.00;-15917.19;5053242;28;50955;-56
2023/01/17 03:04:38;;;;;;;;;14.50;13.25;;;;;-147.17;100.00;-15917.19;5053346;28;51147;-54
2023/01/17 03:07:11;;;;;;;;;15.75;15.00;;;;;-147.17;100.00;-15917.19;5061914;28;52240;-56
2023/01/17 03:09:39;;;;;;;;;17.00;15.00;;;;;-147.17;100.00;-15917.19;5052644;28;51244;-56
2023/01/17 03:12:05;;;;;;;;;15.00;12.00;;;;;-147.17;100.00;-15917.19;5050215;27;51002;-55
2023/01/17 03:14:31;;;;;;;;;17.75;16.25;;;;;-147.17;100.00;-15917.19;5042545;28;51142;-55
2023/01/17 03:16:56;;;;;;;;;16.50;16.00;;;;;-147.17;100.00;-15917.19;5055914;27;51903;-55
2023/01/17 03:19:21;;;;;;;;;16.75;13.75;;;;;-147.17;100.00;-15917.19;5046862;28;51053;-55
2023/01/17 03:21:48;;;;;;;;;17.50;16.00;;;;;-147.17;100.00;-15917.19;5051928;28;51344;-55
2023/01/17 03:24:13;;;;;;;;;13.00;13.00;;;;;-147.17;100.00;-15917.19;5047660;28;51099;-55
2023/01/17 03:26:39;;;;;;;;;15.00;13.50;;;;;-147.17;100.00;-15917.19;5052071;28;51210;-55
2023/01/17 03:29:04;;;;;;;;;12.75;12.00;;;;;-147.17;100.00;-15917.19;5043626;28;51157;-56
2023/01/17 03:31:29;;;;;;;;;20.25;18.25;;;;;-147.17;100.00;-15917.19;5048343;28;50942;-55
2023/01/17 03:33:55;;;;;;;;;14.00;12.00;;;;;-147.17;100.00;-15917.19;5048263;27;51228;-56
2023/01/17 03:36:20;;;;;;;;;14.00;13.75;;;;;-147.17;100.00;-15917.19;5053590;28;52105;-56
2023/01/17 03:38:46;;;;;;;;;14.50;14.50;;;;;-147.17;100.00;-15917.19;5052224;28;51018;-56
2023/01/17 03:41:11;;;;;;;;;15.50;14.25;;;;;-147.17;100.00;-15917.19;5054964;28;51376;-55
2023/01/17 03:43:37;;;;;;;;;13.00;12.00;;;;;-147.17;100.00;-15917.19;5039987;27;51647;-56
2023/01/17 03:46:06;;;;;;;;;2.50;1.00;;;;;-147.17;100.00;-15917.19;5063870;27;51164;-55
2023/01/17 03:48:32;;;;;;;;;9.75;9.25;;;;;-147.17;100.00;-15917.19;5049032;28;51179;-56
2023/01/17 03:50:58;;;;;;;;;17.25;14.50;;;;;-147.17;100.00;-15917.19;5064705;27;51634;-55
2023/01/17 03:53:24;;;;;;;;;18.00;17.00;;;;;-147.17;100.00;-15917.19;5052221;28;51281;-56
2023/01/17 03:55:49;;;;;;;;;16.00;13.25;;;;;-147.17;100.00;-15917.19;5055467;28;51801;-55
2023/01/17 03:58:15;;;;;;;;;17.25;16.00;;;;;-147.17;100.00;-15917.19;5056246;27;52775;-56
2023/01/17 04:00:40;;;;;;;;;13.00;13.00;;;;;-147.17;100.00;-15917.19;5050983;28;50898;-56
2023/01/17 04:03:06;;;;;;;;;15.25;11.50;;;;;-147.17;100.00;-15917.19;5058599;28;51272;-56
2023/01/17 04:05:31;;;;;;;;;12.25;11.50;;;;;-147.17;100.00;-15917.19;5042323;27;51853;-56
2023/01/17 04:07:56;;;;;;;;;16.25;16.00;;;;;-147.17;100.00;-15917.19;5065446;27;51031;-56
2023/01/17 04:10:22;;;;;;;;;14.25;14.25;;;;;-147.17;100.00;-15917.19;5055432;28;51246;-56
2023/01/17 04:12:47;;;;;;;;;17.50;16.25;;;;;-147.17;100.00;-15917.19;5052210;28;51112;-55
2023/01/17 04:15:13;;;;;;;;;16.25;15.00;;;;;-147.17;100.00;-15917.19;5027759;28;54708;-55
2023/01/17 04:17:38;;;;;;;;;13.75;12.75;;;;;-147.17;100.00;-15917.19;5037593;28;51252;-56
2023/01/17 04:20:04;;;;;;;;;12.50;10.25;;;;;-147.17;100.00;-15917.19;5057711;28;51273;-56
2023/01/17 04:22:30;;;;;;;;;11.25;11.00;;;;;-147.17;100.00;-15917.19;5052773;28;51267;-56
2023/01/17 04:24:56;;;;;;;;;7.50;5.25;;;;;-147.17;100.00;-15917.19;5056367;28;52849;-57
2023/01/17 04:27:22;;;;;;;;;12.25;10.00;;;;;-147.17;100.00;-15917.19;5051622;27;51227;-55
2023/01/17 04:29:47;;;;;;;;;12.50;11.50;;;;;-147.17;100.00;-15917.19;5047506;28;51215;-57
2023/01/17 04:32:13;;;;;;;;;13.75;12.25;;;;;-147.17;100.00;-15917.19;5046120;28;51097;-58
2023/01/17 04:34:39;;;;;;;;;16.50;15.50;;;;;-147.17;100.00;-15917.19;5046865;28;51079;-57
2023/01/17 04:37:04;;;;;;;;;13.00;12.00;;;;;-147.17;100.00;-15917.19;5057342;28;51262;-57
2023/01/17 04:39:29;;;;;;;;;16.00;12.75;;;;;-147.17;100.00;-15917.19;5062183;28;51199;-57
2023/01/17 04:41:55;;;;;;;;;13.75;12.00;;;;;-147.17;100.00;-15917.19;5051909;28;51179;-57
2023/01/17 04:44:20;;;;;;;;;16.00;12.75;;;;;-147.17;100.00;-15917.19;5039517;28;51835;-56
2023/01/17 04:46:45;;;;;;;;;11.75;11.25;;;;;-147.17;100.00;-15917.19;5061190;28;51319;-55
2023/01/17 04:49:11;;;;;;;;;12.75;10.00;;;;;-147.17;100.00;-15917.19;5053612;28;51084;-57
2023/01/17 04:51:36;;;;;;;;;12.00;10.00;;;;;-147.17;100.00;-15917.19;5043510;28;50955;-56
2023/01/17 04:54:02;;;;;;;;;11.50;11.50;;;;;-147.17;100.00;-15917.19;5050226;28;52015;-56
2023/01/17 04:56:27;;;;;;;;;10.25;9.75;;;;;-147.17;100.00;-15917.19;5048923;28;51165;-55
2023/01/17 04:58:57;;;;;;;;;11.00;9.25;;;;;-147.17;100.00;-15917.19;5037896;28;51257;-56
2023/01/17 05:01:22;;;;;;;;;16.75;14.50;;;;;-147.17;100.00;-15917.19;5068113;28;51446;-56
2023/01/17 05:03:48;;;;;;;;;11.50;9.75;;;;;-147.17;100.00;-15917.19;5059726;27;51270;-55
2023/01/17 05:06:14;;;;;;;;;16.25;11.50;;;;;-147.17;100.00;-15917.19;5055899;28;51021;-56
2023/01/17 05:08:39;;;;;;;;;13.75;11.75;;;;;-147.17;100.00;-15917.19;5070527;27;51243;-58
2023/01/17 05:11:05;;;;;;;;;13.50;13.00;;;;;-147.17;100.00;-15917.19;5058973;27;51194;-55
2023/01/17 05:13:31;;;;;;;;;18.00;16.25;;;;;-147.17;100.00;-15917.19;5054879;28;51982;-54
2023/01/17 05:15:57;;;;;;;;;13.50;11.50;;;;;-147.17;100.00;-15917.19;5049265;28;51223;-56
2023/01/17 05:18:23;;;;;;;;;19.00;16.00;;;;;-147.17;100.00;-15917.19;5062923;28;51158;-56
2023/01/17 05:20:49;;;;;;;;;16.75;15.75;;;;;-147.17;100.00;-15917.19;5069174;28;51363;-57
2023/01/17 05:23:14;;;;;;;;;13.00;12.50;;;;;-147.17;100.00;-15917.19;5059627;28;52167;-55
2023/01/17 05:25:43;;;;;;;;;18.25;15.25;;;;;-147.17;100.00;-15917.19;5060601;28;51357;-56
2023/01/17 05:28:09;;;;;;;;;18.00;16.50;;;;;-147.17;100.00;-15917.19;5058522;28;51129;-55
2023/01/17 05:30:34;;;;;;;;;19.25;17.75;;;;;-147.17;100.00;-15917.19;5059950;28;51360;-56
2023/01/17 05:33:00;;;;;;;;;15.50;13.00;;;;;-147.17;100.00;-15917.19;5062057;28;51575;-55
2023/01/17 05:35:28;;;;;;;;;18.75;16.00;;;;;-147.17;100.00;-15917.19;5055846;27;51327;-56
2023/01/17 05:37:54;;;;;;;;;16.00;14.50;;;;;-147.17;100.00;-15917.19;5054778;28;51226;-55
2023/01/17 05:40:22;;;;;;;;;13.00;12.25;;;;;-147.17;100.00;-15917.19;5056251;27;51253;-57
2023/01/17 05:42:50;;;;;;;;;20.00;15.25;;;;;-147.17;100.00;-15917.19;5058603;28;51310;-56
2023/01/17 05:45:16;;;;;;;;;17.00;15.50;;;;;-147.17;100.00;-15917.19;5061160;28;51067;-57
2023/01/17 05:47:46;;;;;;;;;11.75;11.75;;;;;-147.17;100.00;-15917.19;5051345;28;51140;-55
2023/01/17 05:50:15;;;;;;;;;13.75;13.50;;;;;-147.17;100.00;-15917.19;5054898;28;51263;-57
2023/01/17 05:52:54;;;;;;;;;13.50;12.75;;;;;-147.17;100.00;-15917.19;5055966;28;54258;-56
2023/01/17 05:55:20;;;;;;;;;15.25;14.25;;;;;-147.17;100.00;-15917.19;5052788;28;51173;-56
2023/01/17 05:57:45;;;;;;;;;13.75;11.25;;;;;-147.17;100.00;-15917.19;5043712;28;51190;-56
2023/01/17 06:00:15;;;;;;;;;17.75;15.25;;;;;-147.17;100.00;-15917.19;5047549;28;51047;-57
2023/01/17 06:02:42;;;;;;;;;13.00;13.00;;;;;-147.17;100.00;-15917.19;5047282;28;51173;-56
2023/01/17 06:05:07;;;;;;;;;11.00;9.25;;;;;-147.17;100.00;-15917.19;5059978;28;51081;-56
2023/01/17 06:07:33;;;;;;;;;13.00;13.00;;;;;-147.17;100.00;-15917.19;5053112;28;51026;-57
2023/01/17 06:09:58;;;;;;;;;16.00;15.00;;;;;-147.17;100.00;-15917.19;5046961;28;51401;-58
2023/01/17 06:12:24;;;;;;;;;13.75;13.75;;;;;-147.17;100.00;-15917.19;5062432;28;53293;-57
2023/01/17 06:14:49;;;;;;;;;13.50;12.00;;;;;-147.17;100.00;-15917.19;5050136;28;51024;-57
2023/01/17 06:17:15;;;;;;;;;12.00;11.75;;;;;-147.17;100.00;-15917.19;5058540;28;51755;-57
2023/01/17 06:19:40;;;;;;;;;11.50;9.75;;;;;-147.17;100.00;-15917.19;5049798;28;51319;-59
2023/01/17 06:22:06;;;;;;;;;13.25;12.00;;;;;-147.17;100.00;-15917.19;5049224;28;51175;-57
2023/01/17 06:24:32;;;;;;;;;7.00;7.00;;;;;-147.17;100.00;-15917.19;5063940;28;51156;-57
2023/01/17 06:26:58;;;;;;;;;13.00;12.00;;;;;-147.17;100.00;-15917.19;5060303;28;51260;-57
2023/01/17 06:29:23;;;;;;;;;9.00;8.75;;;;;-147.17;100.00;-15917.19;5052704;28;51263;-57
2023/01/17 06:31:49;;;;;;;;;9.50;9.00;;;;;-147.17;100.00;-15917.19;5055902;28;51993;-57
2023/01/17 06:34:14;;;;;;;;;12.25;12.25;;;;;-147.17;100.00;-15917.19;5058521;28;51228;-56
2023/01/17 06:36:39;;;;;;;;;13.00;11.50;;;;;-147.17;100.00;-15917.19;5048211;27;51157;-57
2023/01/17 06:39:05;;;;;;;;;11.00;11.00;;;;;-147.17;100.00;-15917.19;5056581;28;51434;-57
2023/01/17 06:41:30;;;;;;;;;13.50;12.75;;;;;-147.17;100.00;-15917.19;5059403;28;51027;-57
2023/01/17 06:43:56;;;;;;;;;15.50;13.00;;;;;-147.17;100.00;-15917.19;5051749;27;51224;-57
2023/01/17 06:46:22;;;;;;;;;12.00;10.75;;;;;-147.17;100.00;-15917.19;5069712;28;51196;-56
2023/01/17 06:48:48;;;;;;;;;13.00;13.00;;;;;-147.17;100.00;-15917.19;5066615;27;51381;-57
2023/01/17 06:51:13;;;;;;;;;11.75;11.00;;;;;-147.17;100.00;-15917.19;5056228;28;51897;-56
2023/01/17 06:53:39;;;;;;;;;16.00;15.25;;;;;-147.17;100.00;-15917.19;5062722;28;51245;-56
2023/01/17 06:56:05;;;;;;;;;12.25;11.50;;;;;-147.17;100.00;-15917.19;5045925;28;51345;-56
2023/01/17 06:58:30;;;;;;;;;10.25;9.75;;;;;-147.17;100.00;-15917.19;5054454;28;51367;-56
2023/01/17 07:00:56;;;;;;;;;12.00;11.25;;;;;-147.17;100.00;-15917.19;5044978;27;51951;-56
2023/01/17 07:03:24;;;;;;;;;12.00;11.50;;;;;-147.17;100.00;-15917.19;5048709;28;51199;-56
2023/01/17 07:05:50;;;;;;;;;12.75;12.75;;;;;-147.17;100.00;-15917.19;5053571;28;51219;-56
2023/01/17 07:08:16;;;;;;;;;14.50;12.50;;;;;-147.17;100.00;-15917.19;5057111;27;51384;-56
2023/01/17 07:10:43;;;;;;;;;11.00;8.25;;;;;-147.17;100.00;-15917.19;5051489;28;52094;-56
2023/01/17 07:13:10;;;;;;;;;7.50;7.50;;;;;-147.17;100.00;-15917.19;5049195;28;51206;-56
2023/01/17 07:15:35;;;;;;;;;17.50;16.00;;;;;-147.17;100.00;-15917.19;5053974;28;51164;-55
2023/01/17 07:18:02;;;;;;;;;12.00;12.00;;;;;-147.17;100.00;-15917.19;5069260;27;51116;-56
2023/01/17 07:20:28;;;;;;;;;15.50;12.75;;;;;-147.17;100.00;-15917.19;5049855;28;54484;-56
2023/01/17 07:22:53;;;;;;;;;13.75;12.75;;;;;-147.17;100.00;-15917.19;5051362;28;50978;-56
2023/01/17 07:25:19;;;;;;;;;13.00;12.00;;;;;-147.17;100.00;-15917.19;5051975;28;51533;-56
2023/01/17 07:27:45;;;;;;;;;12.00;12.00;;;;;-147.17;100.00;-15917.19;5054570;28;51202;-58
2023/01/17 07:30:11;;;;;;;;;15.25;13.50;;;;;-147.17;100.00;-15917.19;5049901;28;52132;-57
2023/01/17 07:32:36;;;;;;;;;14.25;12.75;;;;;-147.17;100.00;-15917.19;5040167;28;51093;-56
2023/01/17 07:35:02;;;;;;;;;12.00;12.00;;;;;-147.17;100.00;-15917.19;5055007;28;50949;-57
2023/01/17 07:37:27;;;;;;;;;13.50;12.75;;;;;-147.17;100.00;-15917.19;5042826;28;51162;-57
2023/01/17 07:39:53;;;;;;;;;13.00;12.25;;;;;-147.17;100.00;-15917.19;5050833;28;51897;-57
2023/01/17 07:42:19;;;;;;;;;15.25;14.50;;;;;-147.17;100.00;-15917.19;5053263;27;51630;-58
2023/01/17 07:44:44;;;;;;;;;17.50;17.50;;;;;-147.17;100.00;-15917.19;5065497;28;51114;-57
2023/01/17 07:47:10;;;;;;;;;16.25;13.50;;;;;-147.17;100.00;-15917.19;5040619;28;51486;-57
2023/01/17 07:49:35;;;;;;;;;16.00;15.75;;;;;-147.17;100.00;-15917.19;5060886;28;51077;-58
2023/01/17 07:52:01;;;;;;;;;16.75;16.00;;;;;-147.17;100.00;-15917.19;5057676;28;51270;-57
2023/01/17 07:54:26;;;;;;;;;15.25;13.50;;;;;-147.17;100.00;-15917.19;5052965;27;51406;-58
2023/01/17 07:56:52;;;;;;;;;17.75;16.75;;;;;-147.17;100.00;-15917.19;5071435;28;51272;-58
2023/01/17 07:59:17;;;;;;;;;15.50;14.25;;;;;-147.17;100.00;-15917.19;5054794;28;51873;-57
2023/01/17 08:01:43;;;;;;;;;19.25;17.50;;;;;-147.17;100.00;-15917.19;5071235;28;51084;-57
2023/01/17 08:04:09;;;;;;;;;16.50;16.00;;;;;-147.17;100.00;-15917.19;5072716;27;51244;-58
2023/01/17 08:06:46;;;;;;;;;14.50;14.00;;;;;-147.17;100.00;-15917.19;5073022;27;51282;-57
2023/01/17 08:09:12;;;;;;;;;14.00;13.50;;;;;-147.17;100.00;-15917.19;5072403;27;50869;-57
2023/01/17 08:11:37;;;;;;;;;10.25;9.75;;;;;-147.17;100.00;-15917.19;5069332;27;51211;-58
2023/01/17 08:14:02;;;;;;;;;14.00;14.00;;;;;-147.17;100.00;-15917.19;5069742;27;51073;-58
2023/01/17 08:16:28;;;;;;;;;19.25;17.00;;;;;-147.17;100.00;-15917.19;5053121;28;50877;-58
2023/01/17 08:18:55;;;;;;;;;17.50;16.25;;;;;-147.17;100.00;-15917.19;5068428;28;51051;-58
2023/01/17 08:21:21;;;;;;;;;15.50;15.00;;;;;-147.17;100.00;-15917.19;5072289;27;51000;-57
2023/01/17 08:23:47;;;;;;;;;13.75;12.75;;;;;-147.17;100.00;-15917.19;5072499;27;50951;-58
2023/01/17 08:26:20;;;;;;;;;17.25;15.25;;;;;-147.17;100.00;-15917.19;5073087;28;50928;-57
2023/01/17 08:28:46;;;;;;;;;19.25;18.50;;;;;-147.17;100.00;-15917.19;5062429;28;51286;-59
2023/01/17 08:31:11;;;;;;;;;20.00;16.25;;;;;-147.17;100.00;-15917.19;5072755;28;50989;-58
2023/01/17 08:33:37;;;;;;;;;13.00;13.00;;;;;-147.17;100.00;-15917.19;5061194;27;50950;-58
2023/01/17 08:36:02;;;;;;;;;22.25;18.75;;;;;-147.17;100.00;-15917.19;5072694;28;51157;-59
2023/01/17 08:38:28;;;;;;;;;20.25;19.25;;;;;-147.17;100.00;-15917.19;5074283;28;52052;-58
2023/01/17 08:40:53;;;;;;;;;25.75;21.50;;;;;-147.17;100.00;-15917.19;5076092;27;51098;-57
2023/01/17 08:43:19;;;;;;;;;17.00;17.00;;;;;-147.17;100.00;-15917.19;5076017;27;50913;-57
2023/01/17 08:45:46;;;;;;;;;19.50;19.50;;;;;-147.17;100.00;-15917.19;5071791;27;51339;-57
2023/01/17 08:48:15;;;;;;;;;22.75;20.50;;;;;-147.17;100.00;-15917.19;5063509;28;51974;-58
2023/01/17 08:50:40;;;;;;;;;18.50;16.00;;;;;-147.17;100.00;-15917.19;5066148;28;51094;-58
2023/01/17 08:53:06;;;;;;;;;15.50;13.25;;;;;-147.17;100.00;-15917.19;5053408;27;50970;-57
2023/01/17 08:55:32;;;;;;;;;10.00;9.50;;;;;-147.17;100.00;-15917.19;5076377;27;51146;-58
2023/01/17 08:57:57;;;;;;;;;9.50;8.50;;;;;-147.17;100.00;-15917.19;5075309;28;50911;-57
2023/01/17 09:00:23;;;;;;;;;13.00;12.00;;;;;-147.17;100.00;-15917.19;5075685;27;50916;-58
2023/01/17 09:02:52;;;;;;;;;14.25;12.75;;;;;-147.17;100.00;-15917.19;5075072;27;50879;-57
2023/01/17 09:05:18;;;;;;;;;14.25;12.25;;;;;-147.17;100.00;-15917.19;5076070;27;50987;-57
2023/01/17 09:07:43;;;;;;;;;13.00;12.00;;;;;-147.17;100.00;-15917.19;5076578;27;53053;-57
2023/01/17 09:10:09;;;;;;;;;15.00;13.50;;;;;-147.17;100.00;-15917.19;5074047;27;51053;-57
2023/01/17 09:12:35;;;;;;;;;18.00;13.00;;;;;-147.17;100.00;-15917.19;5073512;28;51060;-57
2023/01/17 09:15:01;;;;;;;;;13.75;12.50;;;;;-147.17;100.00;-15917.19;5074012;28;51389;-58
2023/01/17 09:17:27;;;;;;;;;14.25;13.50;;;;;-147.17;100.00;-15917.19;5075018;27;52333;-60
2023/01/17 09:19:52;;;;;;;;;18.25;16.00;;;;;-147.17;100.00;-15917.19;5075486;27;51001;-58
2023/01/17 09:22:17;;;;;;;;;16.00;13.00;;;;;-147.17;100.00;-15917.19;5075623;28;50918;-58
2023/01/17 09:24:43;;;;;;;;;20.00;19.50;;;;;-147.17;100.00;-15917.19;5060807;28;51340;-58
2023/01/17 09:27:08;;;;;;;;;17.25;16.00;;;;;-147.17;100.00;-15917.19;5074725;28;50982;-58
2023/01/17 09:29:34;;;;;;;;;22.00;18.00;;;;;-147.17;100.00;-15917.19;5068620;28;51018;-58
2023/01/17 09:31:59;;;;;;;;;18.75;17.25;;;;;-147.17;100.00;-15917.19;5075515;27;50998;-58
2023/01/17 09:34:25;;;;;;;;;21.50;18.75;;;;;-147.17;100.00;-15917.19;5076752;27;50897;-58
2023/01/17 09:36:50;;;;;;;;;15.25;14.25;;;;;-147.17;100.00;-15917.19;5075520;27;51122;-57
2023/01/17 09:39:16;;;;;;;;;17.00;17.00;;;;;-147.17;100.00;-15917.19;5061498;28;51086;-58
2023/01/17 09:42:00;;;;;;;;;1.75;1.75;;;;;-147.17;100.00;-15917.19;5054295;28;51554;-57
2023/01/17 09:44:40;;;;;;;;;13.00;12.75;;;;;-147.17;100.00;-15917.19;5062494;28;51386;-57
2023/01/17 09:47:24;;;;;;;;;19.75;14.00;;;;;-147.17;100.00;-15917.19;5066052;28;52194;-57
2023/01/17 09:49:52;;;;;;;;;14.25;14.00;;;;;-147.17;100.00;-15917.19;5074749;27;51022;-58
2023/01/17 09:52:22;;;;;;;;;17.50;15.25;;;;;-147.17;100.00;-15917.19;5071405;27;51108;-57
2023/01/17 09:54:48;;;;;;;;;14.25;13.00;;;;;-147.17;100.00;-15917.19;5071590;27;51206;-57
2023/01/17 09:57:37;;;;;;;;;17.75;16.50;;;;;-147.17;100.00;-15917.19;5059539;28;51104;-58
2023/01/17 10:00:08;;;;;;;;;17.75;17.25;;;;;-147.17;100.00;-15917.19;5061782;28;51089;-57
2023/01/17 10:02:48;;;;;;;;;13.25;12.50;;;;;-147.17;100.00;-15917.19;5073222;28;51063;-58
2023/01/17 10:05:52;;;;;;;;;13.75;10.00;;;;;-147.17;100.00;-15917.19;5074824;27;50918;-58
2023/01/17 10:08:40;;;;;;;;;15.25;14.00;;;;;-147.17;100.00;-15917.19;5072854;28;52877;-56
2023/01/17 10:11:50;;;;;;;;;13.00;13.00;;;;;-147.17;100.00;-15917.19;5069921;27;50913;-57
2023/01/17 10:14:44;;;;;;;;;21.25;17.50;;;;;-147.17;100.00;-15917.19;5037510;28;51564;-57
2023/01/17 10:17:14;;;;;;;;;14.00;14.00;;;;;-147.17;100.00;-15917.19;5052054;28;51122;-58
2023/01/17 10:20:19;;;;;;;;;13.75;13.00;;;;;-147.17;100.00;-15917.19;5066823;27;51863;-58
2023/01/17 10:23:02;;;;;;;;;19.25;17.50;;;;;-147.17;100.00;-15917.19;5073869;27;51015;-58
2023/01/17 10:25:53;;;;;;;;;19.50;18.00;;;;;-147.17;100.00;-15917.19;5074030;27;50958;-57
2023/01/17 10:28:21;;;;;;;;;24.00;18.25;;;;;-147.17;100.00;-15917.19;5065352;27;51278;-58
2023/01/17 10:30:54;;;;;;;;;20.75;18.25;;;;;-147.17;100.00;-15917.19;5059629;27;51266;-57
2023/01/17 10:33:26;;;;;;;;;20.75;18.25;;;;;-147.17;100.00;-15917.19;5074374;27;52066;-60
2023/01/17 10:35:58;;;;;;;;;13.75;13.75;;;;;-147.17;100.00;-15917.19;5089978;27;51080;-58
2023/01/17 10:38:36;;;;;;;;;21.75;20.00;;;;;-147.17;100.00;-15917.19;5074306;27;50930;-58
2023/01/17 10:41:09;;;;;;;;;20.00;18.25;;;;;-147.17;100.00;-15917.19;5073566;27;52041;-58
2023/01/17 10:43:38;;;;;;;;;15.50;15.50;;;;;-147.17;100.00;-15917.19;5073508;27;50911;-58
2023/01/17 10:46:03;;;;;;;;;15.00;15.00;;;;;-147.17;100.00;-15917.19;5063907;28;51086;-57
2023/01/17 10:48:43;;;;;;;;;17.00;15.50;;;;;-147.17;100.00;-15917.19;5061967;28;51138;-57
2023/01/17 10:51:42;;;;;;;;;9.25;7.50;;;;;-147.17;100.00;-15917.19;5068861;28;51204;-57
2023/01/17 10:54:22;;;;;;;;;16.00;14.50;;;;;-147.17;100.00;-15917.19;5073224;28;51279;-57
2023/01/17 10:56:48;;;;;;;;;10.00;8.00;;;;;-147.17;100.00;-15917.19;5073134;27;51088;-58
2023/01/17 10:59:23;;;;;;;;;10.25;9.25;;;;;-147.17;100.00;-15917.19;5073006;27;51350;-60
2023/01/17 11:01:48;;;;;;;;;11.00;11.00;;;;;-147.17;100.00;-15917.19;5072363;28;52084;-57
2023/01/17 11:04:20;;;;;;;;;14.00;13.00;;;;;-147.17;100.00;-15917.19;5059775;27;51178;-57
2023/01/17 11:06:46;;;;;;;;;10.25;10.25;;;;;-147.17;100.00;-15917.19;5072780;28;51170;-57
2023/01/17 11:09:13;;;;;;;;;13.25;11.00;;;;;-147.17;100.00;-15917.19;5060542;27;51358;-58
2023/01/17 11:11:49;;;;;;;;;15.75;15.25;;;;;-147.17;100.00;-15917.19;5062617;27;51287;-58
2023/01/17 11:14:23;;;;;;;;;10.00;9.50;;;;;-147.17;100.00;-15917.19;5070416;28;50972;-57
2023/01/17 11:17:01;;;;;;;;;14.00;13.50;;;;;-147.17;100.00;-15917.19;5073585;27;51122;-58
2023/01/17 11:19:31;;;;;;;;;10.25;10.25;;;;;-147.17;100.00;-15917.19;5063915;28;51353;-57
2023/01/17 11:22:03;;;;;;;;;14.75;14.00;;;;;-147.17;100.00;-15917.19;5057848;28;51711;-57
2023/01/17 11:24:46;;;;;;;;;16.50;14.25;;;;;-147.17;100.00;-15917.19;5072616;27;50961;-58
2023/01/17 11:27:32;;;;;;;;;15.50;13.75;;;;;-147.17;100.00;-15917.19;5088004;27;50909;-58
2023/01/17 11:30:16;;;;;;;;;16.75;15.75;;;;;-147.17;100.00;-15917.19;5070354;28;51271;-58
2023/01/17 11:33:07;;;;;;;;;11.50;11.00;;;;;-147.17;100.00;-15917.19;5072578;27;51994;-58
2023/01/17 11:35:37;;;;;;;;;14.25;14.00;;;;;-147.17;100.00;-15917.19;5070935;28;51023;-57
2023/01/17 11:38:19;;;;;;;;;7.50;7.50;;;;;-147.17;100.00;-15917.19;5060984;28;51350;-58
2023/01/17 11:40:47;;;;;;;;;9.00;7.00;;;;;-147.17;100.00;-15917.19;5064356;28;51043;-58
2023/01/17 11:43:24;;;;;;;;;18.75;18.50;;;;;-147.17;100.00;-15917.19;5072420;27;52306;-59
2023/01/17 11:46:14;;;;;;;;;16.25;15.00;;;;;-147.17;100.00;-15917.19;5068152;27;51120;-57
2023/01/17 11:48:40;;;;;;;;;18.75;16.75;;;;;-147.17;100.00;-15917.19;5042056;28;51070;-58
2023/01/17 11:51:30;;;;;;;;;11.00;10.75;;;;;-147.17;100.00;-15917.19;5072860;28;50859;-57
2023/01/17 11:54:17;;;;;;;;;13.50;9.00;;;;;-147.17;100.00;-15917.19;5070433;27;50946;-58
2023/01/17 11:56:45;;;;;;;;;12.00;10.75;;;;;-147.17;100.00;-15917.19;5063080;28;51587;-57
2023/01/17 11:59:19;;;;;;;;;12.75;9.50;;;;;-147.17;100.00;-15917.19;5072651;27;50958;-58
2023/01/17 12:01:49;;;;;;;;;12.00;11.00;;;;;-147.17;100.00;-15917.19;5073024;27;51350;-58
2023/01/17 12:04:30;;;;;;;;;16.75;13.50;;;;;-147.17;100.00;-15917.19;5072169;27;51108;-57
2023/01/17 12:07:30;;;;;;;;;23.75;22.00;;;;;-147.17;100.00;-15917.19;5071938;27;50896;-57
2023/01/17 12:10:15;;;;;;;;;16.00;14.25;;;;;-147.17;100.00;-15917.19;5070369;28;51148;-57
2023/01/17 12:19:02;;;;;;;;;13.75;13.00;;;;;-147.17;100.00;-15917.19;5068197;28;51073;-57
2023/01/17 12:22:02;;;;;;;;;14.50;13.25;;;;;-147.17;100.00;-15917.19;5072328;27;51125;-58
2023/01/17 12:25:04;;;;;;;;;14.00;14.00;;;;;-147.17;100.00;-15917.19;5072291;27;51187;-57
2023/01/17 12:27:51;;;;;;;;;17.00;14.75;;;;;-147.17;100.00;-15917.19;5068533;27;50996;-58